createdAt,value
2022-08-24T00:00:23.414Z,7.05
2022-08-24T00:01:28.253Z,6.47
2022-08-24T00:02:30.500Z,6.47
2022-08-24T00:03:34.829Z,6.82
2022-08-24T00:04:37.385Z,7.05
2022-08-24T00:05:42.334Z,6.72
2022-08-24T00:06:44.620Z,6.88
2022-08-24T00:07:48.321Z,7.22
2022-08-24T00:08:52.580Z,7.57
2022-08-24T00:09:55.405Z,7.18
2022-08-24T00:10:57.598Z,7.65
2022-08-24T00:12:01.578Z,7.43
2022-08-24T00:13:03.880Z,7.47
2022-08-24T00:14:12.189Z,7.18
2022-08-24T00:15:15.781Z,7.70
2022-08-24T00:16:18.529Z,7.25
2022-08-24T00:17:21.351Z,7.50
2022-08-24T00:18:23.697Z,7.38
2022-08-24T00:19:27.028Z,6.97
2022-08-24T00:20:29.452Z,7.68
2022-08-24T00:21:31.655Z,7.65
2022-08-24T00:22:33.860Z,7.20
2022-08-24T00:23:36.375Z,7.20
2022-08-24T00:24:38.558Z,8.05
2022-08-24T00:25:41.208Z,8.07
2022-08-24T00:26:43.433Z,7.72
2022-08-24T00:27:46.154Z,7.30
2022-08-24T00:28:48.702Z,7.32
2022-08-24T00:29:51.074Z,7.55
2022-08-24T00:30:53.682Z,7.72
2022-08-24T00:31:56.001Z,7.72
2022-08-24T00:32:58.330Z,7.55
2022-08-24T00:34:00.564Z,8.02
2022-08-24T00:35:06.930Z,7.95
2022-08-24T00:36:09.341Z,7.25
2022-08-24T00:37:11.525Z,7.63
2022-08-24T00:38:14.455Z,7.82
2022-08-24T00:39:20.266Z,7.30
2022-08-24T00:40:35.239Z,7.00
2022-08-24T00:41:46.793Z,8.13
2022-08-24T00:42:56.140Z,7.30
2022-08-24T00:44:02.893Z,7.53
2022-08-24T00:45:07.523Z,7.25
2022-08-24T00:46:25.814Z,7.85
2022-08-24T00:47:39.751Z,7.88
2022-08-24T00:48:48.166Z,7.63
2022-08-24T00:50:01.042Z,7.80
2022-08-24T00:51:11.966Z,7.72
2022-08-24T00:52:17.482Z,6.95
2022-08-24T00:53:25.987Z,7.50
2022-08-24T00:54:31.093Z,7.68
2022-08-24T00:55:38.111Z,7.28
2022-08-24T00:56:45.745Z,7.18
2022-08-24T00:57:52.570Z,7.28
2022-08-24T00:59:00.853Z,6.80
2022-08-24T01:00:14.782Z,7.63
2022-08-24T01:01:17.577Z,7.45
2022-08-24T01:02:44.531Z,7.03
2022-08-24T01:03:46.889Z,7.38
2022-08-24T01:05:00.955Z,7.05
2022-08-24T01:06:04.121Z,6.97
2022-08-24T01:07:06.754Z,7.10
2022-08-24T01:08:11.074Z,6.80
2022-08-24T01:09:14.302Z,6.90
2022-08-24T01:10:26.018Z,7.53
2022-08-24T01:11:33.840Z,7.30
2022-08-24T01:12:42.105Z,7.07
2022-08-24T01:14:04.221Z,6.82
2022-08-24T01:15:09.403Z,6.80
2022-08-24T01:16:13.199Z,6.50
2022-08-24T01:17:38.831Z,6.55
2022-08-24T01:18:50.781Z,6.22
2022-08-24T01:19:57.393Z,6.75
2022-08-24T01:21:16.089Z,6.88
2022-08-24T01:22:44.779Z,6.60
2022-08-24T01:24:02.846Z,6.85
2022-08-24T01:25:05.746Z,6.85
2022-08-24T01:26:12.873Z,6.80
2022-08-24T01:27:19.232Z,6.68
2022-08-24T01:28:27.356Z,6.53
2022-08-24T01:29:33.481Z,6.25
2022-08-24T01:30:38.958Z,6.20
2022-08-24T01:31:41.969Z,6.80
2022-08-24T01:32:59.127Z,7.05
2022-08-24T01:34:02.225Z,6.22
2022-08-24T01:35:08.569Z,6.90
2022-08-24T01:36:38.918Z,6.82
2022-08-24T01:37:41.240Z,6.40
2022-08-24T01:38:47.129Z,6.35
2022-08-24T01:39:52.154Z,6.97
2022-08-24T01:41:01.135Z,6.93
2022-08-24T01:42:06.877Z,6.97
2022-08-24T01:43:11.479Z,7.20
2022-08-24T01:44:13.962Z,7.18
2022-08-24T01:45:17.445Z,6.50
2022-08-24T01:46:21.950Z,6.88
2022-08-24T01:47:24.215Z,7.03
2022-08-24T01:48:27.923Z,6.70
2022-08-24T01:49:33.877Z,7.10
2022-08-24T01:50:38.666Z,6.47
2022-08-24T01:51:43.865Z,6.53
2022-08-24T01:53:06.331Z,6.70
2022-08-24T01:54:13.015Z,6.80
2022-08-24T01:55:19.778Z,6.85
2022-08-24T01:56:25.053Z,7.28
2022-08-24T01:57:30.584Z,6.93
2022-08-24T01:58:33.162Z,7.07
2022-08-24T01:59:36.013Z,6.60
2022-08-24T02:00:38.845Z,6.78
2022-08-24T02:01:46.678Z,6.72
2022-08-24T02:02:51.361Z,6.28
2022-08-24T02:03:53.899Z,6.65
2022-08-24T02:04:59.456Z,6.80
2022-08-24T02:06:02.302Z,7.13
2022-08-24T02:07:06.063Z,7.18
2022-08-24T02:08:09.538Z,7.10
2022-08-24T02:09:14.612Z,6.63
2022-08-24T02:10:17.212Z,6.63
2022-08-24T02:11:19.417Z,7.00
2022-08-24T02:12:22.083Z,7.50
2022-08-24T02:13:24.463Z,6.88
2022-08-24T02:14:26.862Z,6.95
2022-08-24T02:15:40.481Z,7.03
2022-08-24T02:16:45.308Z,6.97
2022-08-24T02:17:50.661Z,7.28
2022-08-24T02:18:52.971Z,7.35
2022-08-24T02:19:55.227Z,7.40
2022-08-24T02:20:58.097Z,7.00
2022-08-24T02:22:00.900Z,6.82
2022-08-24T02:23:04.847Z,7.00
2022-08-24T02:24:08.233Z,6.95
2022-08-24T02:25:10.459Z,7.05
2022-08-24T02:26:20.512Z,6.97
2022-08-24T02:27:22.760Z,7.10
2022-08-24T02:28:25.777Z,6.90
2022-08-24T02:29:28.353Z,7.18
2022-08-24T02:30:32.050Z,7.00
2022-08-24T02:31:34.871Z,7.28
2022-08-24T02:32:37.135Z,7.00
2022-08-24T02:33:41.232Z,7.07
2022-08-24T02:34:44.263Z,6.88
2022-08-24T02:35:47.184Z,6.90
2022-08-24T02:36:53.814Z,7.28
2022-08-24T02:37:56.880Z,7.10
2022-08-24T02:38:59.278Z,6.95
2022-08-24T02:40:02.029Z,6.80
2022-08-24T02:41:06.148Z,7.35
2022-08-24T02:42:08.415Z,7.20
2022-08-24T02:43:10.677Z,7.43
2022-08-24T02:44:15.363Z,6.97
2022-08-24T02:45:18.116Z,7.13
2022-08-24T02:46:23.561Z,6.72
2022-08-24T02:47:38.192Z,7.30
2022-08-24T02:48:41.877Z,6.97
2022-08-24T02:49:44.144Z,6.75
2022-08-24T02:50:49.246Z,7.18
2022-08-24T02:51:54.162Z,7.13
2022-08-24T02:52:57.399Z,6.95
2022-08-24T02:54:01.568Z,7.15
2022-08-24T02:55:05.766Z,6.55
2022-08-24T02:56:07.973Z,6.70
2022-08-24T02:57:10.325Z,7.13
2022-08-24T02:58:13.929Z,7.65
2022-08-24T02:59:17.360Z,7.05
2022-08-24T03:00:21.771Z,7.13
2022-08-24T03:01:30.585Z,7.18
2022-08-24T03:02:33.480Z,6.95
2022-08-24T03:03:42.217Z,7.00
2022-08-24T03:04:44.948Z,7.68
2022-08-24T03:05:52.040Z,7.53
2022-08-24T03:06:57.173Z,7.50
2022-08-24T03:07:59.436Z,7.18
2022-08-24T03:09:03.972Z,7.65
2022-08-24T03:10:07.577Z,7.75
2022-08-24T03:11:09.825Z,7.13
2022-08-24T03:12:12.213Z,7.57
2022-08-24T03:13:14.578Z,7.35
2022-08-24T03:14:18.727Z,7.45
2022-08-24T03:15:22.656Z,7.53
2022-08-24T03:16:26.534Z,7.35
2022-08-24T03:17:35.574Z,7.75
2022-08-24T03:18:43.728Z,7.53
2022-08-24T03:19:46.714Z,7.68
2022-08-24T03:20:49.616Z,6.95
2022-08-24T03:21:54.370Z,7.03
2022-08-24T03:22:56.467Z,7.82
2022-08-24T03:23:58.408Z,7.05
2022-08-24T03:25:00.585Z,8.00
2022-08-24T03:26:05.204Z,7.20
2022-08-24T03:27:08.206Z,7.35
2022-08-24T03:28:12.280Z,7.57
2022-08-24T03:29:16.050Z,7.50
2022-08-24T03:30:19.903Z,7.10
2022-08-24T03:31:31.342Z,7.40
2022-08-24T03:32:34.464Z,7.50
2022-08-24T03:33:37.833Z,7.75
2022-08-24T03:34:40.968Z,7.05
2022-08-24T03:35:43.446Z,7.63
2022-08-24T03:36:47.561Z,7.40
2022-08-24T03:37:51.822Z,7.75
2022-08-24T03:38:54.188Z,8.07
2022-08-24T03:39:56.968Z,7.75
2022-08-24T03:41:01.574Z,7.43
2022-08-24T03:42:04.031Z,7.53
2022-08-24T03:43:06.840Z,7.40
2022-08-24T03:44:09.166Z,7.30
2022-08-24T03:45:12.473Z,7.00
2022-08-24T03:46:20.528Z,7.32
2022-08-24T03:47:22.856Z,7.10
2022-08-24T03:48:25.254Z,7.18
2022-08-24T03:49:27.651Z,8.05
2022-08-24T03:50:30.009Z,7.68
2022-08-24T03:51:32.362Z,7.82
2022-08-24T03:52:35.611Z,7.43
2022-08-24T03:53:37.965Z,8.07
2022-08-24T03:54:45.218Z,7.82
2022-08-24T03:55:47.379Z,7.57
2022-08-24T03:56:50.292Z,7.22
2022-08-24T03:57:53.247Z,7.35
2022-08-24T03:58:56.328Z,7.50
2022-08-24T04:00:02.235Z,6.97
2022-08-24T04:01:06.503Z,7.90
2022-08-24T04:02:10.254Z,7.60
2022-08-24T04:03:15.867Z,8.02
2022-08-24T04:04:18.301Z,8.00
2022-08-24T04:05:20.541Z,8.00
2022-08-24T04:06:23.877Z,8.00
2022-08-24T04:07:26.113Z,7.88
2022-08-24T04:08:28.551Z,7.47
2022-08-24T04:09:30.736Z,7.55
2022-08-24T04:10:36.336Z,7.68
2022-08-24T04:11:41.340Z,7.80
2022-08-24T04:12:44.077Z,7.75
2022-08-24T04:13:49.679Z,7.53
2022-08-24T04:14:53.606Z,8.02
2022-08-24T04:15:56.259Z,7.78
2022-08-24T04:16:59.729Z,7.63
2022-08-24T04:18:10.932Z,7.63
2022-08-24T04:19:14.896Z,7.78
2022-08-24T04:20:17.207Z,8.27
2022-08-24T04:21:28.663Z,8.48
2022-08-24T04:22:34.354Z,8.45
2022-08-24T04:23:46.981Z,8.20
2022-08-24T04:24:52.025Z,8.32
2022-08-24T04:25:54.442Z,8.02
2022-08-24T04:26:56.630Z,8.38
2022-08-24T04:28:00.470Z,8.88
2022-08-24T04:29:08.131Z,8.00
2022-08-24T04:30:14.199Z,8.00
2022-08-24T04:31:38.332Z,7.68
2022-08-24T04:32:40.889Z,7.85
2022-08-24T04:33:49.913Z,8.38
2022-08-24T04:34:57.437Z,8.93
2022-08-24T04:35:59.811Z,9.52
2022-08-24T04:37:08.492Z,8.80
2022-08-24T04:38:14.184Z,8.98
2022-08-24T04:39:21.064Z,9.10
2022-08-24T04:40:49.959Z,8.70
2022-08-24T04:41:53.292Z,8.52
2022-08-24T04:42:59.134Z,8.60
2022-08-24T04:44:03.024Z,8.43
2022-08-24T04:45:05.558Z,8.02
2022-08-24T04:46:08.735Z,8.07
2022-08-24T04:47:13.847Z,8.48
2022-08-24T04:48:16.195Z,8.50
2022-08-24T04:49:18.441Z,8.57
2022-08-24T04:50:20.991Z,8.52
2022-08-24T04:51:26.953Z,8.45
2022-08-24T04:52:34.195Z,8.10
2022-08-24T04:53:37.086Z,9.43
2022-08-24T04:54:40.017Z,8.13
2022-08-24T04:55:49.958Z,8.15
2022-08-24T04:56:56.348Z,8.02
2022-08-24T04:57:58.740Z,7.85
2022-08-24T04:59:02.582Z,8.32
2022-08-24T05:00:06.584Z,7.82
2022-08-24T05:01:10.036Z,8.73
2022-08-24T05:02:13.259Z,8.30
2022-08-24T05:03:15.715Z,8.35
2022-08-24T05:04:18.298Z,8.95
2022-08-24T05:05:20.541Z,8.63
2022-08-24T05:06:28.556Z,8.80
2022-08-24T05:07:31.617Z,8.77
2022-08-24T05:08:35.056Z,9.13
2022-08-24T05:09:37.296Z,9.32
2022-08-24T05:10:45.234Z,8.57
2022-08-24T05:11:49.678Z,8.55
2022-08-24T05:12:59.606Z,8.63
2022-08-24T05:14:01.880Z,8.65
2022-08-24T05:15:05.706Z,9.48
2022-08-24T05:16:16.458Z,9.07
2022-08-24T05:17:19.080Z,8.70
2022-08-24T05:18:21.356Z,8.75
2022-08-24T05:19:23.965Z,8.75
2022-08-24T05:20:26.960Z,8.85
2022-08-24T05:21:30.986Z,8.60
2022-08-24T05:22:38.660Z,9.18
2022-08-24T05:23:42.827Z,8.98
2022-08-24T05:24:47.665Z,9.02
2022-08-24T05:25:49.858Z,9.10
2022-08-24T05:26:55.501Z,8.80
2022-08-24T05:28:00.928Z,8.95
2022-08-24T05:29:03.633Z,9.02
2022-08-24T05:30:14.249Z,8.80
2022-08-24T05:31:19.844Z,8.80
2022-08-24T05:32:22.189Z,8.52
2022-08-24T05:33:25.954Z,9.00
2022-08-24T05:34:30.815Z,8.57
2022-08-24T05:35:43.635Z,8.80
2022-08-24T05:36:46.852Z,8.45
2022-08-24T05:38:15.508Z,8.55
2022-08-24T05:39:18.264Z,9.05
2022-08-24T05:40:33.255Z,8.73
2022-08-24T05:41:36.295Z,8.45
2022-08-24T05:42:46.885Z,8.70
2022-08-24T05:43:50.311Z,9.27
2022-08-24T05:44:56.307Z,9.23
2022-08-24T05:45:58.790Z,8.70
2022-08-24T05:47:02.378Z,8.40
2022-08-24T05:48:07.964Z,8.48
2022-08-24T05:49:40.769Z,8.90
2022-08-24T05:50:44.320Z,9.15
2022-08-24T05:51:47.321Z,9.05
2022-08-24T05:52:50.339Z,8.93
2022-08-24T05:53:52.857Z,8.52
2022-08-24T05:54:59.279Z,8.90
2022-08-24T05:56:12.449Z,8.93
2022-08-24T05:57:18.449Z,8.85
2022-08-24T05:58:32.906Z,8.98
2022-08-24T05:59:37.938Z,9.02
2022-08-24T06:00:47.229Z,9.15
2022-08-24T06:01:53.609Z,8.57
2022-08-24T06:02:56.454Z,8.13
2022-08-24T06:03:59.595Z,8.75
2022-08-24T06:05:01.892Z,8.40
2022-08-24T06:06:07.280Z,8.55
2022-08-24T06:07:10.324Z,8.30
2022-08-24T06:08:16.200Z,9.43
2022-08-24T06:09:18.390Z,8.20
2022-08-24T06:10:36.218Z,8.35
2022-08-24T06:11:41.043Z,8.27
2022-08-24T06:12:43.782Z,8.70
2022-08-24T06:13:55.483Z,8.77
2022-08-24T06:15:04.278Z,7.88
2022-08-24T06:16:21.596Z,8.70
2022-08-24T06:17:25.310Z,8.57
2022-08-24T06:18:27.653Z,8.73
2022-08-24T06:19:30.392Z,8.63
2022-08-24T06:20:34.236Z,8.60
2022-08-24T06:21:38.104Z,8.93
2022-08-24T06:22:44.347Z,8.82
2022-08-24T06:23:46.929Z,8.10
2022-08-24T06:25:07.993Z,8.57
2022-08-24T06:26:31.401Z,8.65
2022-08-24T06:27:34.101Z,8.20
2022-08-24T06:28:37.006Z,8.23
2022-08-24T06:29:39.454Z,7.65
2022-08-24T06:31:07.468Z,8.30
2022-08-24T06:32:09.911Z,8.30
2022-08-24T06:33:15.454Z,8.63
2022-08-24T06:34:19.975Z,8.30
2022-08-24T06:35:23.775Z,8.25
2022-08-24T06:36:26.368Z,7.95
2022-08-24T06:37:29.461Z,8.57
2022-08-24T06:38:32.505Z,8.23
2022-08-24T06:39:38.884Z,8.20
2022-08-24T06:40:41.745Z,8.15
2022-08-24T06:41:44.986Z,8.40
2022-08-24T06:42:53.323Z,8.65
2022-08-24T06:44:12.525Z,8.15
2022-08-24T06:45:32.910Z,8.45
2022-08-24T06:46:38.949Z,8.20
2022-08-24T06:47:42.126Z,7.80
2022-08-24T06:48:45.484Z,7.97
2022-08-24T06:49:48.186Z,8.00
2022-08-24T06:50:50.504Z,8.38
2022-08-24T06:51:52.833Z,7.70
2022-08-24T06:52:55.172Z,8.00
2022-08-24T06:53:59.447Z,7.57
2022-08-24T06:55:02.668Z,8.30
2022-08-24T06:56:05.963Z,8.30
2022-08-24T06:57:12.547Z,8.55
2022-08-24T06:58:15.307Z,8.00
2022-08-24T06:59:17.534Z,7.00
2022-08-24T07:00:20.683Z,8.10
2022-08-24T07:01:28.541Z,7.55
2022-08-24T07:02:34.379Z,7.28
2022-08-24T07:03:38.568Z,7.93
2022-08-24T07:04:54.025Z,7.05
2022-08-24T07:06:15.319Z,7.38
2022-08-24T07:07:18.396Z,7.25
2022-08-24T07:08:21.651Z,7.40
2022-08-24T07:09:25.194Z,6.97
2022-08-24T07:10:31.108Z,7.40
2022-08-24T07:11:35.196Z,7.75
2022-08-24T07:12:40.459Z,7.30
2022-08-24T07:13:45.827Z,7.20
2022-08-24T07:14:48.848Z,6.93
2022-08-24T07:15:52.476Z,7.13
2022-08-24T07:16:54.775Z,6.97
2022-08-24T07:17:57.716Z,7.40
2022-08-24T07:19:04.747Z,7.10
2022-08-24T07:20:09.215Z,7.10
2022-08-24T07:21:41.647Z,7.13
2022-08-24T07:22:44.911Z,7.18
2022-08-24T07:23:48.811Z,7.18
2022-08-24T07:24:51.079Z,7.05
2022-08-24T07:25:56.211Z,7.28
2022-08-24T07:26:59.349Z,6.63
2022-08-24T07:28:03.171Z,7.13
2022-08-24T07:29:43.623Z,6.93
2022-08-24T07:30:40.472Z,7.07
2022-08-24T07:31:44.055Z,7.45
2022-08-24T07:32:57.032Z,6.60
2022-08-24T07:34:00.518Z,7.38
2022-08-24T07:35:02.868Z,7.55
2022-08-24T07:36:06.184Z,7.50
2022-08-24T07:37:08.428Z,6.53
2022-08-24T07:38:13.960Z,6.88
2022-08-24T07:39:19.410Z,6.78
2022-08-24T07:40:22.567Z,6.88
2022-08-24T07:41:43.651Z,6.50
2022-08-24T07:42:55.368Z,6.43
2022-08-24T07:43:58.071Z,5.93
2022-08-24T07:45:00.583Z,5.90
2022-08-24T07:46:05.434Z,6.53
2022-08-24T07:47:34.477Z,5.78
2022-08-24T07:48:31.859Z,6.22
2022-08-24T07:49:37.545Z,6.00
2022-08-24T07:50:46.613Z,6.50
2022-08-24T07:51:53.345Z,6.65
2022-08-24T07:52:55.611Z,6.32
2022-08-24T07:53:58.131Z,6.55
2022-08-24T07:55:06.815Z,6.05
2022-08-24T07:56:13.988Z,6.22
2022-08-24T07:57:19.461Z,6.20
2022-08-24T07:58:21.952Z,6.45
2022-08-24T07:59:24.627Z,6.82
2022-08-24T08:00:27.625Z,6.40
2022-08-24T08:01:35.095Z,6.35
2022-08-24T08:02:38.871Z,6.07
2022-08-24T08:03:42.037Z,6.82
2022-08-24T08:04:44.252Z,5.85
2022-08-24T08:05:46.803Z,6.53
2022-08-24T08:06:51.428Z,6.15
2022-08-24T08:07:53.747Z,5.63
2022-08-24T08:08:56.278Z,5.82
2022-08-24T08:09:58.654Z,6.22
2022-08-24T08:11:02.729Z,6.47
2022-08-24T08:12:08.234Z,6.28
2022-08-24T08:13:12.105Z,6.28
2022-08-24T08:14:20.472Z,6.50
2022-08-24T08:15:22.826Z,6.53
2022-08-24T08:16:39.264Z,6.32
2022-08-24T08:17:41.521Z,5.85
2022-08-24T08:18:43.697Z,6.30
2022-08-24T08:19:48.254Z,6.25
2022-08-24T08:20:50.734Z,6.15
2022-08-24T08:22:13.732Z,6.30
2022-08-24T08:23:54.267Z,6.60
2022-08-24T08:25:01.418Z,6.28
2022-08-24T08:26:03.866Z,5.93
2022-08-24T08:27:29.003Z,6.30
2022-08-24T08:28:36.151Z,6.50
2022-08-24T08:29:40.943Z,6.22
2022-08-24T08:30:44.985Z,6.28
2022-08-24T08:31:48.179Z,5.93
2022-08-24T08:32:53.641Z,6.20
2022-08-24T08:33:56.563Z,6.07
2022-08-24T08:35:02.147Z,6.30
2022-08-24T08:36:12.603Z,6.07
2022-08-24T08:37:23.438Z,6.22
2022-08-24T08:38:28.663Z,5.70
2022-08-24T08:39:31.532Z,5.63
2022-08-24T08:41:13.729Z,5.47
2022-08-24T08:42:38.612Z,5.53
2022-08-24T08:44:04.456Z,5.40
2022-08-24T08:45:21.857Z,5.80
2022-08-24T08:47:07.969Z,6.07
2022-08-24T08:48:29.311Z,5.30
2022-08-24T08:50:10.929Z,5.50
2022-08-24T08:51:45.545Z,6.20
2022-08-24T08:53:05.358Z,5.82
2022-08-24T08:54:11.174Z,6.18
2022-08-24T08:55:24.223Z,5.65
2022-08-24T08:57:09.965Z,5.55
2022-08-24T08:58:53.818Z,5.53
2022-08-24T09:00:15.583Z,5.72
2022-08-24T09:01:47.535Z,5.70
2022-08-24T09:03:19.205Z,5.07
2022-08-24T09:05:14.439Z,5.18
2022-08-24T09:07:02.402Z,5.55
2022-08-24T09:08:51.878Z,5.20
2022-08-24T09:10:06.933Z,5.10
2022-08-24T09:11:55.452Z,5.57
2022-08-24T09:13:25.113Z,5.30
2022-08-24T09:14:42.766Z,4.88
2022-08-24T09:16:22.853Z,4.78
2022-08-24T09:17:40.829Z,4.50
2022-08-24T09:18:50.719Z,5.10
2022-08-24T09:20:31.664Z,4.80
2022-08-24T09:22:05.709Z,4.55
2022-08-24T09:23:36.633Z,4.65
2022-08-24T09:25:06.127Z,4.60
2022-08-24T09:26:47.150Z,4.60
2022-08-24T09:28:28.781Z,4.78
2022-08-24T09:29:59.319Z,5.05
2022-08-24T09:31:36.352Z,4.40
2022-08-24T09:33:00.681Z,4.75
2022-08-24T09:34:16.038Z,4.95
2022-08-24T09:35:28.013Z,5.00
2022-08-24T09:36:47.401Z,5.00
2022-08-24T09:38:14.022Z,4.43
2022-08-24T09:39:34.844Z,4.80
2022-08-24T09:40:58.293Z,4.45
2022-08-24T09:42:22.018Z,4.72
2022-08-24T09:43:39.330Z,5.32
2022-08-24T09:44:47.284Z,5.43
2022-08-24T09:46:23.390Z,5.35
2022-08-24T09:47:58.573Z,5.07
2022-08-24T09:49:16.014Z,5.15
2022-08-24T09:50:50.774Z,5.35
2022-08-24T09:52:18.771Z,5.30
2022-08-24T09:53:53.795Z,4.93
2022-08-24T09:55:27.003Z,4.97
2022-08-24T09:56:53.816Z,5.07
2022-08-24T09:58:26.662Z,5.00
2022-08-24T09:59:44.634Z,5.15
2022-08-24T10:00:54.533Z,5.30
2022-08-24T10:02:30.014Z,5.18
2022-08-24T10:03:55.706Z,5.10
2022-08-24T10:05:19.133Z,5.18
2022-08-24T10:06:43.493Z,5.40
2022-08-24T10:07:58.506Z,5.28
2022-08-24T10:09:00.742Z,5.28
2022-08-24T10:10:18.337Z,5.50
2022-08-24T10:11:52.890Z,5.32
2022-08-24T10:13:29.648Z,5.45
2022-08-24T10:14:50.848Z,5.47
2022-08-24T10:16:22.358Z,5.65
2022-08-24T10:17:46.301Z,5.53
2022-08-24T10:19:01.350Z,5.97
2022-08-24T10:20:19.078Z,5.55
2022-08-24T10:21:39.802Z,5.43
2022-08-24T10:23:01.505Z,5.32
2022-08-24T10:24:30.934Z,5.50
2022-08-24T10:25:46.070Z,5.18
2022-08-24T10:27:23.629Z,5.53
2022-08-24T10:28:58.097Z,5.40
2022-08-24T10:30:37.760Z,5.53
2022-08-24T10:32:00.738Z,6.18
2022-08-24T10:33:18.378Z,5.90
2022-08-24T10:34:46.758Z,5.60
2022-08-24T10:36:00.971Z,5.70
2022-08-24T10:37:25.826Z,5.82
2022-08-24T10:38:59.452Z,5.90
2022-08-24T10:40:32.093Z,5.90
2022-08-24T10:42:35.492Z,5.95
2022-08-24T10:43:40.586Z,5.88
2022-08-24T10:45:01.351Z,5.85
2022-08-24T10:46:45.804Z,5.53
2022-08-24T10:48:25.459Z,6.15
2022-08-24T10:49:36.603Z,5.95
2022-08-24T10:50:53.313Z,6.00
2022-08-24T10:52:13.564Z,6.00
2022-08-24T10:53:34.932Z,5.68
2022-08-24T10:54:40.348Z,6.20
2022-08-24T10:55:43.523Z,6.00
2022-08-24T10:56:45.688Z,5.68
2022-08-24T10:58:25.826Z,6.50
2022-08-24T10:59:41.167Z,6.07
2022-08-24T11:00:45.164Z,6.47
2022-08-24T11:02:31.600Z,6.15
2022-08-24T11:03:48.675Z,6.55
2022-08-24T11:05:00.286Z,6.43
2022-08-24T11:06:15.394Z,6.15
2022-08-24T11:07:27.552Z,6.10
2022-08-24T11:08:33.621Z,5.53
2022-08-24T11:09:53.322Z,5.88
2022-08-24T11:11:24.652Z,6.03
2022-08-24T11:12:30.665Z,5.80
2022-08-24T11:13:34.070Z,6.03
2022-08-24T11:14:46.842Z,5.85
2022-08-24T11:15:55.285Z,6.40
2022-08-24T11:17:23.883Z,5.72
2022-08-24T11:18:47.817Z,5.68
2022-08-24T11:19:51.598Z,5.32
2022-08-24T11:20:55.936Z,5.90
2022-08-24T11:22:05.150Z,5.68
2022-08-24T11:23:08.801Z,5.68
2022-08-24T11:24:19.398Z,5.95
2022-08-24T11:25:30.505Z,5.90
2022-08-24T11:26:48.543Z,5.68
2022-08-24T11:28:06.254Z,5.72
2022-08-24T11:29:08.465Z,5.80
2022-08-24T11:30:15.491Z,6.00
2022-08-24T11:31:40.163Z,5.18
2022-08-24T11:32:55.217Z,6.10
2022-08-24T11:34:04.147Z,6.22
2022-08-24T11:35:26.413Z,6.03
2022-08-24T11:36:32.279Z,6.03
2022-08-24T11:37:39.761Z,5.68
2022-08-24T11:38:45.584Z,5.85
2022-08-24T11:39:48.185Z,5.50
2022-08-24T11:40:55.374Z,5.70
2022-08-24T11:42:06.651Z,6.13
2022-08-24T11:43:20.624Z,5.63
2022-08-24T11:44:37.167Z,5.80
2022-08-24T11:46:22.703Z,5.90
2022-08-24T11:47:39.257Z,5.72
2022-08-24T11:49:24.308Z,5.50
2022-08-24T11:50:57.534Z,5.93
2022-08-24T11:52:32.187Z,5.80
2022-08-24T11:53:43.518Z,5.50
2022-08-24T11:54:55.946Z,5.63
2022-08-24T11:56:21.642Z,5.85
2022-08-24T11:57:47.626Z,6.05
2022-08-24T11:59:07.549Z,5.50
2022-08-24T12:00:15.440Z,6.05
2022-08-24T12:01:43.562Z,5.75
2022-08-24T12:03:05.869Z,5.70
2022-08-24T12:04:43.049Z,5.90
2022-08-24T12:05:58.644Z,6.13
2022-08-24T12:07:31.706Z,6.07
2022-08-24T12:08:49.594Z,6.32
2022-08-24T12:10:14.718Z,5.90
2022-08-24T12:11:47.664Z,6.43
2022-08-24T12:13:09.532Z,5.68
2022-08-24T12:14:41.456Z,6.00
2022-08-24T12:15:52.419Z,6.18
2022-08-24T12:17:05.686Z,6.07
2022-08-24T12:18:15.764Z,6.15
2022-08-24T12:19:30.148Z,6.60
2022-08-24T12:22:02.128Z,5.75
2022-08-24T12:23:12.252Z,5.53
2022-08-24T12:24:38.256Z,5.93
2022-08-24T12:26:00.261Z,5.95
2022-08-24T12:27:13.482Z,5.75
2022-08-24T12:28:28.266Z,6.13
2022-08-24T12:30:07.865Z,6.28
2022-08-24T12:31:17.412Z,5.85
2022-08-24T12:32:25.759Z,5.97
2022-08-24T12:33:37.483Z,6.07
2022-08-24T12:34:47.374Z,6.15
2022-08-24T12:35:59.517Z,5.93
2022-08-24T12:37:29.625Z,6.10
2022-08-24T12:38:43.779Z,6.75
2022-08-24T12:39:54.218Z,6.35
2022-08-24T12:41:19.080Z,6.55
2022-08-24T12:42:38.366Z,5.97
2022-08-24T12:43:49.877Z,5.97
2022-08-24T12:45:05.640Z,6.30
2022-08-24T12:46:08.069Z,6.28
2022-08-24T12:47:13.447Z,5.68
2022-08-24T12:48:21.617Z,6.20
2022-08-24T12:49:38.448Z,6.40
2022-08-24T12:50:49.347Z,6.35
2022-08-24T12:52:03.267Z,6.82
2022-08-24T12:53:13.609Z,6.32
2022-08-24T12:54:22.544Z,6.28
2022-08-24T12:55:52.308Z,7.32
2022-08-24T12:56:54.832Z,7.20
2022-08-24T12:59:42.948Z,6.63
2022-08-24T13:00:47.216Z,6.55
2022-08-24T13:02:17.682Z,6.45
2022-08-24T13:03:42.240Z,6.32
2022-08-24T13:04:50.386Z,6.40
2022-08-24T13:05:58.413Z,6.70
2022-08-24T13:07:07.033Z,6.03
2022-08-24T13:08:33.901Z,6.28
2022-08-24T13:09:45.803Z,6.38
2022-08-24T13:11:04.830Z,6.15
2022-08-24T13:12:38.121Z,6.22
2022-08-24T13:13:47.677Z,6.80
2022-08-24T13:14:54.149Z,7.00
2022-08-24T13:16:03.043Z,6.30
2022-08-24T13:17:05.566Z,6.93
2022-08-24T13:18:13.994Z,6.78
2022-08-24T13:19:32.815Z,6.60
2022-08-24T13:20:35.000Z,6.50
2022-08-24T13:21:42.633Z,6.70
2022-08-24T13:23:03.997Z,6.25
2022-08-24T13:24:28.267Z,6.57
2022-08-24T13:25:52.946Z,6.65
2022-08-24T13:27:18.876Z,8.13
2022-08-24T13:28:21.118Z,6.70
2022-08-24T13:29:33.069Z,7.07
2022-08-24T13:30:58.409Z,6.45
2022-08-24T13:32:01.754Z,6.90
2022-08-24T13:33:10.895Z,6.25
2022-08-24T13:34:16.849Z,6.32
2022-08-24T13:35:37.191Z,6.15
2022-08-24T13:37:10.570Z,6.38
2022-08-24T13:38:52.287Z,6.05
2022-08-24T13:40:19.106Z,6.22
2022-08-24T13:41:51.895Z,6.60
2022-08-24T13:43:13.642Z,6.35
2022-08-24T13:44:15.911Z,6.10
2022-08-24T13:45:23.141Z,7.00
2022-08-24T13:46:28.109Z,6.72
2022-08-24T13:48:00.146Z,6.80
2022-08-24T13:49:20.349Z,6.25
2022-08-24T13:50:40.128Z,6.65
2022-08-24T13:51:48.338Z,6.25
2022-08-24T13:53:05.532Z,6.28
2022-08-24T13:54:25.157Z,6.45
2022-08-24T13:55:31.750Z,6.70
2022-08-24T13:56:58.882Z,6.40
2022-08-24T13:58:23.695Z,6.57
2022-08-24T13:59:56.947Z,5.95
2022-08-24T14:01:23.887Z,6.13
2022-08-24T14:03:09.080Z,6.93
2022-08-24T14:04:39.909Z,7.00
2022-08-24T14:05:54.257Z,6.65
2022-08-24T14:07:20.393Z,6.03
2022-08-24T14:08:37.227Z,6.50
2022-08-24T14:09:46.231Z,6.53
2022-08-24T14:11:35.347Z,6.30
2022-08-24T14:12:47.493Z,6.28
2022-08-24T14:14:24.198Z,6.70
2022-08-24T14:15:34.401Z,6.53
2022-08-24T14:17:35.735Z,6.10
2022-08-24T14:18:58.512Z,6.45
2022-08-24T14:20:22.666Z,7.00
2022-08-24T14:21:36.440Z,6.90
2022-08-24T14:23:06.171Z,6.72
2022-08-24T14:24:18.997Z,6.97
2022-08-24T14:25:24.765Z,6.85
2022-08-24T14:26:40.218Z,7.47
2022-08-24T14:28:30.206Z,6.88
2022-08-24T14:29:36.708Z,6.53
2022-08-24T14:30:43.012Z,7.03
2022-08-24T14:32:12.183Z,6.82
2022-08-24T14:33:28.226Z,7.53
2022-08-24T14:35:11.069Z,6.75
2022-08-24T14:36:24.725Z,7.38
2022-08-24T14:38:04.361Z,6.57
2022-08-24T14:39:20.971Z,7.00
2022-08-24T14:40:37.167Z,6.93
2022-08-24T14:42:15.005Z,7.05
2022-08-24T14:43:31.670Z,7.38
2022-08-24T14:44:52.161Z,7.40
2022-08-24T14:46:08.269Z,7.18
2022-08-24T14:47:24.371Z,7.28
2022-08-24T14:48:38.481Z,7.35
2022-08-24T14:50:09.174Z,7.22
2022-08-24T14:51:45.855Z,7.05
2022-08-24T14:53:01.228Z,7.70
2022-08-24T14:54:15.738Z,7.78
2022-08-24T14:55:56.936Z,7.30
2022-08-24T14:57:44.058Z,7.80
2022-08-24T14:59:09.541Z,7.93
2022-08-24T15:00:25.229Z,7.53
2022-08-24T15:01:41.692Z,8.23
2022-08-24T15:03:11.964Z,8.50
2022-08-24T15:04:36.203Z,9.25
2022-08-24T15:06:25.620Z,9.02
2022-08-24T15:07:36.624Z,9.27
2022-08-24T15:08:43.066Z,9.57
2022-08-24T15:09:46.184Z,9.75
2022-08-24T15:11:00.152Z,9.57
2022-08-24T15:12:26.595Z,10.00
2022-08-24T15:13:58.615Z,9.70
2022-08-24T15:15:10.611Z,9.85
2022-08-24T15:16:53.217Z,9.73
2022-08-24T15:18:15.804Z,10.63
2022-08-24T15:19:49.353Z,9.88
2022-08-24T15:21:06.996Z,9.73
2022-08-24T15:22:14.370Z,9.88
2022-08-24T15:23:28.323Z,9.52
2022-08-24T15:24:33.596Z,10.90
2022-08-24T15:25:50.295Z,10.57
2022-08-24T15:27:24.125Z,11.10
2022-08-24T15:28:29.834Z,11.05
2022-08-24T15:29:34.631Z,10.30
2022-08-24T15:30:40.254Z,11.05
2022-08-24T15:31:54.328Z,10.88
2022-08-24T15:33:19.048Z,10.65
2022-08-24T15:34:38.338Z,10.95
2022-08-24T15:35:43.934Z,10.50
2022-08-24T15:36:59.567Z,11.27
2022-08-24T15:38:25.433Z,11.25
2022-08-24T15:39:29.047Z,10.45
2022-08-24T15:40:33.325Z,10.68
2022-08-24T15:41:41.979Z,10.55
2022-08-24T15:42:44.529Z,10.30
2022-08-24T15:43:56.888Z,10.60
2022-08-24T15:45:02.166Z,9.95
2022-08-24T15:46:05.017Z,10.57
2022-08-24T15:47:20.067Z,10.60
2022-08-24T15:48:26.657Z,10.32
2022-08-24T15:49:48.698Z,10.68
2022-08-24T15:50:53.440Z,10.60
2022-08-24T15:52:00.451Z,12.30
2022-08-24T15:53:06.977Z,11.60
2022-08-24T15:54:30.235Z,11.65
2022-08-24T15:55:43.339Z,11.43
2022-08-24T15:57:20.057Z,12.02